Terminal Aerodrome Forecast
Issued by NWS

Home | Current Version | Previous Version | Text Only | Print | Product List | Glossary On
Versions: 1 2 3 4 5 6 7 8 9 10 11 12 13 14 15 16 17 18 19 20 21 22
000
FTUS46 KPDT 232332
TAFALW
TAF
KALW 232332Z 2400/2424 23004KT 2SM BR SCT005 OVC012
     FM240400 17006KT 3/4SM BR BKN003 OVC008
     FM241800 17005KT 3SM BR BKN008 OVC015
     FM242100 21005KT 5SM BR SCT010 OVC020=

USA.gov is the U.S. government's official web portal to all federal, state and local government web resources and services.